Flight Track Log - Related Links

Times and Time Zones

All times are in EDT time to prevent confusion due to time zone crossing. See the JST419 flight status page for this flight to view local times or setup timezone preferences in your user account.

Time Position Orientation Groundspeed Altitude Reporting Facility
EDT Latitude Longitude Course Direction KTS MPH feet Rate Location/Type
Sat 05:11:05 PM -28.1898 153.5215 157° South 170 196 1,600  Level Aus ATC (RADAR)
Sat 05:11:40 PM -28.2180 153.5352 160° South 205 236 2,300 2,057 Climbing Aus ATC (RADAR)
Sat 05:12:15 PM -28.2502 153.5489 217° Southwest 220 253 4,000 3,000 Climbing Aus ATC (RADAR)
Sat 05:13:10 PM -28.3004 153.5065 237° Southwest 268 308 6,800 2,824 Climbing Aus ATC (RADAR)
Sat 05:14:14 PM -28.3517 153.4167 236° Southwest 316 364 9,600 2,788 Climbing Aus ATC (RADAR)
Sat 05:14:49 PM -28.3813 153.3678 235° Southwest 317 365 11,400 2,914 Climbing Aus ATC (RADAR)
Sat 05:15:24 PM -28.4120 153.3172 221° Southwest 329 379 13,000 2,862 Climbing Aus ATC (RADAR)
Sat 05:15:54 PM -28.4481 153.2817 207° Southwest 354 407 14,500 2,677 Climbing Aus ATC (RADAR)
Sat 05:16:29 PM -28.5000 153.2517 208° Southwest 361 415 15,900 2,314 Climbing Aus ATC (RADAR)
Sat 05:17:04 PM -28.5526 153.2193 208° Southwest 371 427 17,200 2,400 Climbing Aus ATC (RADAR)
Sat 05:17:54 PM -28.6284 153.1727 208° Southwest 372 428 19,300 2,291 Climbing Aus ATC (RADAR)
Sat 05:18:54 PM -28.7219 153.1152 208° Southwest 385 443 21,400 1,867 Climbing Aus ATC (RADAR)
Sat 05:19:24 PM -28.7698 153.0856 209° Southwest 394 453 22,100 1,886 Climbing Aus ATC (RADAR)
Sat 05:20:04 PM -28.8343 153.0455 208° Southwest 395 455 23,600 1,800 Climbing Aus ATC (RADAR)
Sat 05:20:34 PM -28.8835 153.0154 209° Southwest 402 463 24,200 1,629 Climbing Aus ATC (RADAR)
Sat 05:21:14 PM -28.9495 152.9740 208° Southwest 405 466 25,500 1,714 Climbing Aus ATC (RADAR)
Sat 05:21:44 PM -28.9998 152.9433 209° Southwest 410 472 26,200 1,313 Climbing Aus ATC (RADAR)
Sat 05:22:18 PM -29.0590 152.9060 208° Southwest 417 480 26,900 1,404 Climbing Aus ATC (RADAR)
Sat 05:23:18 PM -29.1622 152.8420 209° Southwest 421 484 28,400 1,453 Climbing Aus ATC (RADAR)
Sat 05:23:53 PM -29.2236 152.8037 209° Southwest 432 497 29,200 1,457 Climbing Aus ATC (RADAR)
Sat 05:24:28 PM -29.2848 152.7653 209° Southwest 430 495 30,100 1,286 Climbing Aus ATC (RADAR)
Sat 05:25:03 PM -29.3465 152.7266 208° Southwest 434 499 30,700 1,114 Climbing Aus ATC (RADAR)
Sat 05:25:38 PM -29.4089 152.6878 209° Southwest 439 505 31,400 1,200 Climbing Aus ATC (RADAR)
Sat 05:26:08 PM -29.4624 152.6538 209° Southwest 441 507 32,000 1,629 Climbing Aus ATC (RADAR)
Sat 05:26:48 PM -29.5328 152.6098 209° Southwest 433 498 33,300 1,714 Climbing Aus ATC (RADAR)
Sat 05:27:18 PM -29.5847 152.5767 209° Southwest 429 494 34,000 1,333 Climbing Aus ATC (RADAR)
Sat 05:28:18 PM -29.6869 152.5128 209° Southwest 418 481 35,300 1,074 Climbing Aus ATC (RADAR)
Sat 05:28:53 PM -29.7469 152.4740 209° Southwest 425 489 35,700 771 Climbing Aus ATC (RADAR)
Sat 05:29:28 PM -29.8071 152.4356 209° Southwest 425 489 36,200 429 Climbing Aus ATC (RADAR)
Sat 05:30:03 PM -29.8675 152.3967 209° Southwest 426 490 36,200  Level Aus ATC (RADAR)
Sat 05:30:33 PM -29.9192 152.3637 209° Southwest 427 491 36,200  Level Aus ATC (RADAR)
Sat 05:31:08 PM -29.9804 152.3245 209° Southwest 434 499 36,200  Level Aus ATC (RADAR)
Sat 05:31:43 PM -30.0422 152.2848 209° Southwest 435 501 36,200  Level Aus ATC (RADAR)
Sat 05:32:17 PM -30.1044 152.2454 209° Southwest 438 504 36,200  Level Aus ATC (RADAR)
Sat 05:33:28 PM -30.2283 152.1657 207° Southwest 438 504 36,200  Level Aus ATC (RADAR)
Sat 05:34:17 PM -30.3178 152.1118 208° Southwest 436 502 36,200  Level Aus ATC (RADAR)
Sat 05:34:52 PM -30.3797 152.0743 209° Southwest 433 498 36,200  Level Aus ATC (RADAR)
Sat 05:35:27 PM -30.4406 152.0350 214° Southwest 430 495 36,200  Level Aus ATC (RADAR)
Sat 05:35:57 PM -30.4908 151.9960 209° Southwest 428 493 36,200  Level Aus ATC (RADAR)
Sat 05:36:32 PM -30.5514 151.9568 209° Southwest 431 496 36,200  Level Aus ATC (RADAR)
Sat 05:37:07 PM -30.6119 151.9177 209° Southwest 430 495 36,200  Level Aus ATC (RADAR)
Sat 05:37:42 PM -30.6729 151.8783 209° Southwest 431 496 36,200 -71 Level Aus ATC (RADAR)
Sat 05:38:32 PM -30.7600 151.8219 209° Southwest 433 498 36,100  Descending Aus ATC (RADAR)
Sat 05:39:07 PM -30.8215 151.7820 203° Southwest 436 502 36,200 92 Climbing Aus ATC (RADAR)
Sat 05:39:37 PM -30.8777 151.7546 198° South 441 507 36,200  Level Aus ATC (RADAR)
Sat 05:40:17 PM -30.9564 151.7246 199° South 448 516 36,200  Level Aus ATC (RADAR)
Sat 05:40:47 PM -31.0145 151.7007 199° South 445 512 36,200 -94 Level Aus ATC (RADAR)
Sat 05:41:21 PM -31.0828 151.6729 199° South 448 516 36,100 -87 Descending Aus ATC (RADAR)
Sat 05:41:56 PM -31.1507 151.6450 199° South 446 513 36,100 86 Level Aus ATC (RADAR)
Sat 05:42:31 PM -31.2193 151.6174 199° South 449 517 36,200 67 Climbing Aus ATC (RADAR)
Sat 05:43:26 PM -31.3268 151.5733 199° South 447 514 36,200  Level Aus ATC (RADAR)
Sat 05:44:16 PM -31.4250 151.5333 199° South 448 516 36,200  Level Aus ATC (RADAR)
Sat 05:44:52 PM -31.4943 151.5049 199° South 449 517 36,200  Level Aus ATC (RADAR)
Sat 05:45:27 PM -31.5638 151.4766 199° South 451 519 36,200  Level Aus ATC (RADAR)
Sat 05:46:02 PM -31.6332 151.4485 199° South 451 519 36,200  Level Aus ATC (RADAR)
Sat 05:46:32 PM -31.6927 151.4241 199° South 450 518 36,200  Level Aus ATC (RADAR)
Sat 05:47:12 PM -31.7716 151.3913 199° South 449 517 36,200 86 Level Aus ATC (RADAR)
Sat 05:47:42 PM -31.8304 151.3670 200° South 446 513 36,300  Climbing Aus ATC (RADAR)
Sat 05:48:36 PM -31.9368 151.3223 199° South 441 507 36,200 -71 Descending Aus ATC (RADAR)
Sat 05:49:07 PM -31.9951 151.2981 200° South 442 509 36,200  Level Aus ATC (RADAR)
Sat 05:49:42 PM -32.0632 151.2696 199° South 443 510 36,200  Level Aus ATC (RADAR)
Sat 05:50:17 PM -32.1311 151.2415 199° South 443 510 36,200  Level Aus ATC (RADAR)
Sat 05:50:51 PM -32.1993 151.2137 189° South 443 510 36,200 -656 Level Aus ATC (RADAR)
Sat 05:51:21 PM -32.2615 151.2021 186° South 445 512 35,500 -2,229 Descending Aus ATC (RADAR)
Sat 05:52:01 PM -32.3454 151.1913 188° South 455 524 33,600 -3,343 Descending Aus ATC (RADAR)
Sat 05:52:31 PM -32.4104 151.1806 188° South 473 544 31,600 -3,038 Descending Aus ATC (RADAR)
Sat 05:53:20 PM -32.5174 151.1626 188° South 458 527 29,600 -2,400 Descending Aus ATC (RADAR)
Sat 05:54:16 PM -32.6330 151.1437 188° South 454 522 27,400 -2,308 Descending Aus ATC (RADAR)
Sat 05:54:51 PM -32.7045 151.1324 188° South 446 513 26,100 -2,160 Descending Aus ATC (RADAR)
Sat 05:55:31 PM -32.7829 151.1199 189° South 430 495 24,700 -2,229 Descending Aus ATC (RADAR)
Sat 05:56:01 PM -32.8389 151.1099 188° South 411 473 23,500 -2,348 Descending Aus ATC (RADAR)
Sat 05:56:40 PM -32.9135 151.0976 187° South 401 461 22,000 -2,229 Descending Aus ATC (RADAR)
Sat 05:57:11 PM -32.9700 151.0891 189° South 406 467 20,900 -2,123 Descending Aus ATC (RADAR)
Sat 05:57:45 PM -33.0334 151.0776 188° South 392 451 19,700 -2,167 Descending Aus ATC (RADAR)
Sat 05:58:59 PM -33.1663 151.0561 186° South 378 435 17,000 -2,177 Descending Aus ATC (RADAR)
Sat 05:59:49 PM -33.2519 151.0455 169° South 358 412 15,200 -2,049 Descending Aus ATC (RADAR)
Sat 06:00:21 PM -33.3033 151.0569 171° South 364 419 14,200 -2,000 Descending Aus ATC (RADAR)
Sat 06:01:01 PM -33.3697 151.0694 171° South 364 419 12,800 -1,899 Descending Aus ATC (RADAR)
Sat 06:01:40 PM -33.4360 151.0820 171° South 357 411 11,700 -1,479 Descending Aus ATC (RADAR)
Sat 06:02:14 PM -33.4863 151.0918 171° South 304 350 11,000 -1,569 Descending Aus ATC (RADAR)
Sat 06:02:45 PM -33.5268 151.0998 171° South 291 335 10,000 -1,516 Descending Aus ATC (RADAR)
Sat 06:03:45 PM -33.6051 151.1142 171° South 282 325 8,700 -887 Descending Aus ATC (RADAR)
Sat 06:04:40 PM -33.6747 151.1281 170° South 276 318 8,300 -436 Descending Aus ATC (RADAR)
Sat 06:05:35 PM -33.7434 151.1420 171° South 272 313 7,900 -447 Descending Aus ATC (RADAR)
Sat 06:06:14 PM -33.7923 151.1513 182° South 267 307 7,600 -514 Descending Aus ATC (RADAR)
Sat 06:06:45 PM -33.8298 151.1499 194° South 266 306 7,300 -646 Descending Aus ATC (RADAR)
Sat 06:07:19 PM -33.8711 151.1374 193° South 264 304 6,900 -609 Descending Aus ATC (RADAR)
Sat 06:07:54 PM -33.9139 151.1253 193° South 268 308 6,600 -400 Descending Aus ATC (RADAR)
Sat 06:09:19 PM -34.0165 151.0956 193° South 268 308 6,100 -267 Descending Aus ATC (RADAR)
Sat 06:10:09 PM -34.0773 151.0784 170° South 270 311 6,000 -635 Descending Aus ATC (RADAR)
Sat 06:10:44 PM -34.1201 151.0871 167° South 268 308 5,200 -1,216 Descending Aus ATC (RADAR)
Sat 06:11:23 PM -34.1661 151.0995 161° South 246 283 4,500 -857 Descending Aus ATC (RADAR)
Sat 06:11:54 PM -34.1986 151.1128 101° East 241 277 4,200 -738 Descending Aus ATC (RADAR)
Sat 06:12:28 PM -34.2059 151.1561 68° East 233 268 3,700 -771 Descending Aus ATC (RADAR)
Sat 06:13:04 PM -34.1920 151.1983 14° North 220 253 3,300 -470 Descending Aus ATC (RADAR)
Sat 06:14:23 PM -34.1177 151.2202 348° North 207 238 2,800 -512 Descending Aus ATC (RADAR)
Sat 06:15:13 PM -34.0701 151.2081 348° North 209 241 2,200 -900 Descending Aus ATC (RADAR)
Sat 06:15:43 PM -34.0418 151.2007 348° North 204 235 1,600 -1,114 Descending Aus ATC (RADAR)
Sat 06:16:23 PM -34.0098 151.1925 348° North 169 194 900 -930 Descending Aus ATC (RADAR)
Sat 06:16:54 PM -33.9884 151.1870 348° North 157 181 500 -738 Descending Aus ATC (RADAR)
Sat 06:17:28 PM -33.9662 151.1813 348° North 137 158 100 -706 Descending Aus ATC (RADAR)

Login

Don't have an account? Register now (free) for customized features, flight alerts, and more!